sensor_id;sensor_type;location;lat;lon;timestamp;P1;durP1;ratioP1;P2;durP2;ratioP2
77581;SDS011;66726;52.388;9.986;2024-03-07T00:01:24;16.90;;;13.17;;
77581;SDS011;66726;52.388;9.986;2024-03-07T00:03:54;15.97;;;12.67;;
77581;SDS011;66726;52.388;9.986;2024-03-07T00:06:23;17.37;;;13.37;;
77581;SDS011;66726;52.388;9.986;2024-03-07T00:08:51;15.73;;;13.07;;
77581;SDS011;66726;52.388;9.986;2024-03-07T00:11:19;16.03;;;12.73;;
77581;SDS011;66726;52.388;9.986;2024-03-07T00:13:47;18.33;;;13.10;;
77581;SDS011;66726;52.388;9.986;2024-03-07T00:16:16;15.90;;;12.53;;
77581;SDS011;66726;52.388;9.986;2024-03-07T00:18:44;16.60;;;13.27;;
77581;SDS011;66726;52.388;9.986;2024-03-07T00:21:13;15.97;;;12.60;;
77581;SDS011;66726;52.388;9.986;2024-03-07T00:23:41;15.57;;;12.83;;
77581;SDS011;66726;52.388;9.986;2024-03-07T00:26:10;15.93;;;12.93;;
77581;SDS011;66726;52.388;9.986;2024-03-07T00:28:40;17.33;;;13.00;;
77581;SDS011;66726;52.388;9.986;2024-03-07T00:31:08;17.73;;;12.90;;
77581;SDS011;66726;52.388;9.986;2024-03-07T00:33:37;14.03;;;12.50;;
77581;SDS011;66726;52.388;9.986;2024-03-07T00:36:26;15.50;;;12.73;;
77581;SDS011;66726;52.388;9.986;2024-03-07T00:38:54;18.30;;;12.40;;
77581;SDS011;66726;52.388;9.986;2024-03-07T00:41:23;17.77;;;12.90;;
77581;SDS011;66726;52.388;9.986;2024-03-07T00:43:51;16.10;;;12.93;;
77581;SDS011;66726;52.388;9.986;2024-03-07T00:46:19;17.17;;;11.83;;
77581;SDS011;66726;52.388;9.986;2024-03-07T00:48:47;15.30;;;11.83;;
77581;SDS011;66726;52.388;9.986;2024-03-07T00:51:15;14.83;;;12.17;;
77581;SDS011;66726;52.388;9.986;2024-03-07T00:53:45;17.03;;;13.10;;
77581;SDS011;66726;52.388;9.986;2024-03-07T00:56:13;17.67;;;13.13;;
77581;SDS011;66726;52.388;9.986;2024-03-07T00:58:41;16.30;;;13.10;;
77581;SDS011;66726;52.388;9.986;2024-03-07T01:01:09;15.20;;;12.43;;
77581;SDS011;66726;52.388;9.986;2024-03-07T01:03:38;16.40;;;12.57;;
77581;SDS011;66726;52.388;9.986;2024-03-07T01:06:06;16.10;;;11.90;;
77581;SDS011;66726;52.388;9.986;2024-03-07T01:08:36;16.30;;;12.47;;
77581;SDS011;66726;52.388;9.986;2024-03-07T01:11:05;14.10;;;12.37;;
77581;SDS011;66726;52.388;9.986;2024-03-07T01:13:36;20.03;;;12.83;;
77581;SDS011;66726;52.388;9.986;2024-03-07T01:16:04;16.00;;;12.10;;
77581;SDS011;66726;52.388;9.986;2024-03-07T01:18:33;15.63;;;12.63;;
77581;SDS011;66726;52.388;9.986;2024-03-07T01:21:02;14.87;;;11.93;;
77581;SDS011;66726;52.388;9.986;2024-03-07T01:23:32;15.57;;;12.00;;
77581;SDS011;66726;52.388;9.986;2024-03-07T01:26:00;18.67;;;12.00;;
77581;SDS011;66726;52.388;9.986;2024-03-07T01:28:30;14.30;;;11.67;;
77581;SDS011;66726;52.388;9.986;2024-03-07T01:30:58;16.83;;;12.40;;
77581;SDS011;66726;52.388;9.986;2024-03-07T01:33:26;16.13;;;11.87;;
77581;SDS011;66726;52.388;9.986;2024-03-07T01:35:54;16.07;;;12.97;;
77581;SDS011;66726;52.388;9.986;2024-03-07T01:38:23;17.50;;;12.80;;
77581;SDS011;66726;52.388;9.986;2024-03-07T01:40:51;15.53;;;12.57;;
77581;SDS011;66726;52.388;9.986;2024-03-07T01:43:21;15.57;;;12.37;;
77581;SDS011;66726;52.388;9.986;2024-03-07T01:45:50;16.50;;;12.87;;
77581;SDS011;66726;52.388;9.986;2024-03-07T01:48:25;14.97;;;12.20;;
77581;SDS011;66726;52.388;9.986;2024-03-07T01:50:55;15.93;;;12.40;;
77581;SDS011;66726;52.388;9.986;2024-03-07T01:53:24;18.10;;;12.33;;
77581;SDS011;66726;52.388;9.986;2024-03-07T01:55:55;14.20;;;11.97;;
77581;SDS011;66726;52.388;9.986;2024-03-07T01:58:25;15.30;;;12.67;;
77581;SDS011;66726;52.388;9.986;2024-03-07T02:00:58;17.50;;;13.00;;
77581;SDS011;66726;52.388;9.986;2024-03-07T02:03:27;15.03;;;12.53;;
77581;SDS011;66726;52.388;9.986;2024-03-07T02:05:55;18.30;;;12.17;;
77581;SDS011;66726;52.388;9.986;2024-03-07T02:08:24;15.47;;;12.53;;
77581;SDS011;66726;52.388;9.986;2024-03-07T02:10:52;17.00;;;13.17;;
77581;SDS011;66726;52.388;9.986;2024-03-07T02:13:20;16.00;;;12.43;;
77581;SDS011;66726;52.388;9.986;2024-03-07T02:15:48;17.63;;;12.87;;
77581;SDS011;66726;52.388;9.986;2024-03-07T02:18:18;18.87;;;12.97;;
77581;SDS011;66726;52.388;9.986;2024-03-07T02:20:48;16.80;;;13.17;;
77581;SDS011;66726;52.388;9.986;2024-03-07T02:23:17;18.97;;;12.90;;
77581;SDS011;66726;52.388;9.986;2024-03-07T02:25:45;17.87;;;13.53;;
77581;SDS011;66726;52.388;9.986;2024-03-07T02:28:13;16.33;;;13.13;;
77581;SDS011;66726;52.388;9.986;2024-03-07T02:30:41;16.37;;;13.00;;
77581;SDS011;66726;52.388;9.986;2024-03-07T02:33:11;17.37;;;13.67;;
77581;SDS011;66726;52.388;9.986;2024-03-07T02:35:41;16.40;;;13.30;;
77581;SDS011;66726;52.388;9.986;2024-03-07T02:38:10;16.30;;;13.27;;
77581;SDS011;66726;52.388;9.986;2024-03-07T02:40:39;17.97;;;13.63;;
77581;SDS011;66726;52.388;9.986;2024-03-07T02:43:07;18.07;;;13.97;;
77581;SDS011;66726;52.388;9.986;2024-03-07T02:45:35;18.53;;;15.10;;
77581;SDS011;66726;52.388;9.986;2024-03-07T02:48:03;17.27;;;14.33;;
77581;SDS011;66726;52.388;9.986;2024-03-07T02:50:36;20.13;;;14.83;;
77581;SDS011;66726;52.388;9.986;2024-03-07T02:53:05;18.03;;;14.80;;
77581;SDS011;66726;52.388;9.986;2024-03-07T02:55:34;21.40;;;15.43;;
77581;SDS011;66726;52.388;9.986;2024-03-07T02:58:03;19.10;;;14.57;;
77581;SDS011;66726;52.388;9.986;2024-03-07T03:00:31;19.23;;;15.03;;
77581;SDS011;66726;52.388;9.986;2024-03-07T03:03:02;19.10;;;14.13;;
77581;SDS011;66726;52.388;9.986;2024-03-07T03:05:31;18.20;;;14.13;;
77581;SDS011;66726;52.388;9.986;2024-03-07T03:07:59;17.87;;;14.33;;
77581;SDS011;66726;52.388;9.986;2024-03-07T03:10:27;20.40;;;15.83;;
77581;SDS011;66726;52.388;9.986;2024-03-07T03:12:58;18.23;;;14.90;;
77581;SDS011;66726;52.388;9.986;2024-03-07T03:15:28;22.00;;;15.10;;
77581;SDS011;66726;52.388;9.986;2024-03-07T03:17:56;21.93;;;16.07;;
77581;SDS011;66726;52.388;9.986;2024-03-07T03:20:26;21.57;;;15.90;;
77581;SDS011;66726;52.388;9.986;2024-03-07T03:23:01;19.57;;;14.97;;
77581;SDS011;66726;52.388;9.986;2024-03-07T03:25:33;20.70;;;15.57;;
77581;SDS011;66726;52.388;9.986;2024-03-07T03:28:03;19.93;;;15.60;;
77581;SDS011;66726;52.388;9.986;2024-03-07T03:30:32;20.23;;;15.80;;
77581;SDS011;66726;52.388;9.986;2024-03-07T03:33:00;20.27;;;16.13;;
77581;SDS011;66726;52.388;9.986;2024-03-07T03:35:29;19.70;;;15.50;;
77581;SDS011;66726;52.388;9.986;2024-03-07T03:37:57;19.57;;;15.03;;
77581;SDS011;66726;52.388;9.986;2024-03-07T03:40:25;24.67;;;16.10;;
77581;SDS011;66726;52.388;9.986;2024-03-07T03:42:53;19.50;;;16.20;;
77581;SDS011;66726;52.388;9.986;2024-03-07T03:45:23;20.07;;;15.63;;
77581;SDS011;66726;52.388;9.986;2024-03-07T03:47:52;22.40;;;17.43;;
77581;SDS011;66726;52.388;9.986;2024-03-07T03:50:21;23.37;;;15.67;;
77581;SDS011;66726;52.388;9.986;2024-03-07T03:52:50;23.57;;;16.83;;
77581;SDS011;66726;52.388;9.986;2024-03-07T03:55:18;20.10;;;15.33;;
77581;SDS011;66726;52.388;9.986;2024-03-07T03:57:47;20.90;;;16.33;;
77581;SDS011;66726;52.388;9.986;2024-03-07T04:00:16;23.80;;;17.37;;
77581;SDS011;66726;52.388;9.986;2024-03-07T04:02:50;21.13;;;16.97;;
77581;SDS011;66726;52.388;9.986;2024-03-07T04:05:19;23.47;;;17.50;;
77581;SDS011;66726;52.388;9.986;2024-03-07T04:07:48;20.53;;;16.43;;
77581;SDS011;66726;52.388;9.986;2024-03-07T04:10:17;22.27;;;16.60;;
77581;SDS011;66726;52.388;9.986;2024-03-07T04:12:45;21.57;;;16.40;;
77581;SDS011;66726;52.388;9.986;2024-03-07T04:15:14;22.57;;;16.73;;
77581;SDS011;66726;52.388;9.986;2024-03-07T04:17:45;23.17;;;17.57;;
77581;SDS011;66726;52.388;9.986;2024-03-07T04:20:16;23.90;;;17.40;;
77581;SDS011;66726;52.388;9.986;2024-03-07T04:22:46;21.60;;;16.57;;
77581;SDS011;66726;52.388;9.986;2024-03-07T04:25:15;25.27;;;18.10;;
77581;SDS011;66726;52.388;9.986;2024-03-07T04:27:44;23.20;;;17.93;;
77581;SDS011;66726;52.388;9.986;2024-03-07T04:30:13;23.67;;;17.80;;
77581;SDS011;66726;52.388;9.986;2024-03-07T04:32:43;22.77;;;18.00;;
77581;SDS011;66726;52.388;9.986;2024-03-07T04:35:11;23.37;;;17.63;;
77581;SDS011;66726;52.388;9.986;2024-03-07T04:37:45;26.17;;;19.50;;
77581;SDS011;66726;52.388;9.986;2024-03-07T04:40:13;26.80;;;19.10;;
77581;SDS011;66726;52.388;9.986;2024-03-07T04:42:44;25.63;;;19.30;;
77581;SDS011;66726;52.388;9.986;2024-03-07T04:45:15;27.83;;;19.70;;
77581;SDS011;66726;52.388;9.986;2024-03-07T04:47:45;27.07;;;19.73;;
77581;SDS011;66726;52.388;9.986;2024-03-07T04:50:15;26.50;;;19.50;;
77581;SDS011;66726;52.388;9.986;2024-03-07T04:52:47;26.77;;;19.80;;
77581;SDS011;66726;52.388;9.986;2024-03-07T04:55:16;24.53;;;19.23;;
77581;SDS011;66726;52.388;9.986;2024-03-07T04:57:45;26.43;;;19.93;;
77581;SDS011;66726;52.388;9.986;2024-03-07T05:00:14;28.47;;;20.27;;
77581;SDS011;66726;52.388;9.986;2024-03-07T05:02:49;27.40;;;19.67;;
77581;SDS011;66726;52.388;9.986;2024-03-07T05:05:18;26.57;;;19.53;;
77581;SDS011;66726;52.388;9.986;2024-03-07T05:07:51;27.97;;;20.50;;
77581;SDS011;66726;52.388;9.986;2024-03-07T05:10:19;28.73;;;20.97;;
77581;SDS011;66726;52.388;9.986;2024-03-07T05:12:48;30.70;;;21.27;;
77581;SDS011;66726;52.388;9.986;2024-03-07T05:15:17;31.13;;;21.10;;
77581;SDS011;66726;52.388;9.986;2024-03-07T05:17:45;32.20;;;21.90;;
77581;SDS011;66726;52.388;9.986;2024-03-07T05:20:14;32.00;;;22.40;;
77581;SDS011;66726;52.388;9.986;2024-03-07T05:22:42;30.40;;;22.30;;
77581;SDS011;66726;52.388;9.986;2024-03-07T05:25:18;31.37;;;22.07;;
77581;SDS011;66726;52.388;9.986;2024-03-07T05:27:46;32.53;;;21.97;;
77581;SDS011;66726;52.388;9.986;2024-03-07T05:30:16;35.53;;;24.37;;
77581;SDS011;66726;52.388;9.986;2024-03-07T05:32:44;33.47;;;23.57;;
77581;SDS011;66726;52.388;9.986;2024-03-07T05:35:14;33.10;;;22.37;;
77581;SDS011;66726;52.388;9.986;2024-03-07T05:37:47;34.53;;;24.30;;
77581;SDS011;66726;52.388;9.986;2024-03-07T05:40:18;33.43;;;23.50;;
77581;SDS011;66726;52.388;9.986;2024-03-07T05:42:46;34.63;;;23.33;;
77581;SDS011;66726;52.388;9.986;2024-03-07T05:45:15;35.37;;;24.37;;
77581;SDS011;66726;52.388;9.986;2024-03-07T05:47:44;33.47;;;23.63;;
77581;SDS011;66726;52.388;9.986;2024-03-07T05:50:14;34.17;;;24.80;;
77581;SDS011;66726;52.388;9.986;2024-03-07T05:52:42;35.83;;;25.27;;
77581;SDS011;66726;52.388;9.986;2024-03-07T05:55:11;31.33;;;23.03;;
77581;SDS011;66726;52.388;9.986;2024-03-07T05:57:40;38.27;;;24.97;;
77581;SDS011;66726;52.388;9.986;2024-03-07T06:00:10;37.13;;;24.17;;
77581;SDS011;66726;52.388;9.986;2024-03-07T06:02:41;38.23;;;25.40;;
77581;SDS011;66726;52.388;9.986;2024-03-07T06:05:10;38.10;;;26.13;;
77581;SDS011;66726;52.388;9.986;2024-03-07T06:07:42;36.63;;;25.57;;
77581;SDS011;66726;52.388;9.986;2024-03-07T06:10:12;39.00;;;25.83;;
77581;SDS011;66726;52.388;9.986;2024-03-07T06:12:44;38.80;;;25.33;;
77581;SDS011;66726;52.388;9.986;2024-03-07T06:15:15;36.80;;;25.60;;
77581;SDS011;66726;52.388;9.986;2024-03-07T06:17:44;40.37;;;27.40;;
77581;SDS011;66726;52.388;9.986;2024-03-07T06:20:13;40.57;;;26.37;;
77581;SDS011;66726;52.388;9.986;2024-03-07T06:22:49;41.43;;;26.77;;
77581;SDS011;66726;52.388;9.986;2024-03-07T06:25:18;38.00;;;24.53;;
77581;SDS011;66726;52.388;9.986;2024-03-07T06:28:00;40.77;;;26.63;;
77581;SDS011;66726;52.388;9.986;2024-03-07T06:30:35;45.83;;;28.00;;
77581;SDS011;66726;52.388;9.986;2024-03-07T06:33:04;46.47;;;27.73;;
77581;SDS011;66726;52.388;9.986;2024-03-07T06:35:33;45.00;;;28.73;;
77581;SDS011;66726;52.388;9.986;2024-03-07T06:38:03;40.97;;;26.47;;
77581;SDS011;66726;52.388;9.986;2024-03-07T06:40:32;38.10;;;26.90;;
77581;SDS011;66726;52.388;9.986;2024-03-07T06:43:02;40.93;;;27.00;;
77581;SDS011;66726;52.388;9.986;2024-03-07T06:45:33;45.20;;;27.77;;
77581;SDS011;66726;52.388;9.986;2024-03-07T06:48:04;41.53;;;28.13;;
77581;SDS011;66726;52.388;9.986;2024-03-07T06:50:34;46.47;;;27.83;;
77581;SDS011;66726;52.388;9.986;2024-03-07T06:53:04;49.10;;;30.47;;
77581;SDS011;66726;52.388;9.986;2024-03-07T06:55:35;50.10;;;29.47;;
77581;SDS011;66726;52.388;9.986;2024-03-07T06:58:04;51.73;;;29.37;;
77581;SDS011;66726;52.388;9.986;2024-03-07T07:00:33;45.03;;;28.37;;
77581;SDS011;66726;52.388;9.986;2024-03-07T07:03:04;48.13;;;29.23;;
77581;SDS011;66726;52.388;9.986;2024-03-07T07:05:33;44.43;;;28.43;;
77581;SDS011;66726;52.388;9.986;2024-03-07T07:08:02;54.90;;;31.33;;
77581;SDS011;66726;52.388;9.986;2024-03-07T07:10:33;54.70;;;30.53;;
77581;SDS011;66726;52.388;9.986;2024-03-07T07:13:02;58.10;;;32.07;;
77581;SDS011;66726;52.388;9.986;2024-03-07T07:15:32;61.80;;;31.87;;
77581;SDS011;66726;52.388;9.986;2024-03-07T07:18:00;61.47;;;33.47;;
77581;SDS011;66726;52.388;9.986;2024-03-07T07:20:29;54.93;;;31.23;;
77581;SDS011;66726;52.388;9.986;2024-03-07T07:23:00;58.77;;;33.27;;
77581;SDS011;66726;52.388;9.986;2024-03-07T07:25:30;63.30;;;33.00;;
77581;SDS011;66726;52.388;9.986;2024-03-07T07:27:59;54.73;;;32.50;;
77581;SDS011;66726;52.388;9.986;2024-03-07T07:30:32;61.57;;;32.00;;
77581;SDS011;66726;52.388;9.986;2024-03-07T07:33:00;59.00;;;32.83;;
77581;SDS011;66726;52.388;9.986;2024-03-07T07:35:29;55.40;;;33.17;;
77581;SDS011;66726;52.388;9.986;2024-03-07T07:37:57;53.80;;;30.30;;
77581;SDS011;66726;52.388;9.986;2024-03-07T07:40:26;51.73;;;30.30;;
77581;SDS011;66726;52.388;9.986;2024-03-07T07:42:54;55.77;;;30.87;;
77581;SDS011;66726;52.388;9.986;2024-03-07T07:45:23;64.73;;;33.87;;
77581;SDS011;66726;52.388;9.986;2024-03-07T07:47:53;75.70;;;33.97;;
77581;SDS011;66726;52.388;9.986;2024-03-07T07:50:22;68.33;;;33.03;;
77581;SDS011;66726;52.388;9.986;2024-03-07T07:52:52;57.63;;;31.27;;
77581;SDS011;66726;52.388;9.986;2024-03-07T07:55:22;70.97;;;33.67;;
77581;SDS011;66726;52.388;9.986;2024-03-07T07:57:53;68.93;;;33.63;;
77581;SDS011;66726;52.388;9.986;2024-03-07T08:00:24;69.27;;;33.57;;
77581;SDS011;66726;52.388;9.986;2024-03-07T08:02:59;71.07;;;34.60;;
77581;SDS011;66726;52.388;9.986;2024-03-07T08:05:29;69.23;;;32.67;;
77581;SDS011;66726;52.388;9.986;2024-03-07T08:08:00;68.30;;;35.13;;
77581;SDS011;66726;52.388;9.986;2024-03-07T08:10:32;65.50;;;32.67;;
77581;SDS011;66726;52.388;9.986;2024-03-07T08:13:03;64.03;;;33.13;;
77581;SDS011;66726;52.388;9.986;2024-03-07T08:15:33;60.83;;;31.20;;
77581;SDS011;66726;52.388;9.986;2024-03-07T08:18:03;73.30;;;33.03;;
77581;SDS011;66726;52.388;9.986;2024-03-07T08:20:36;61.13;;;31.37;;
77581;SDS011;66726;52.388;9.986;2024-03-07T08:23:05;70.17;;;32.97;;
77581;SDS011;66726;52.388;9.986;2024-03-07T08:25:33;59.80;;;30.67;;
77581;SDS011;66726;52.388;9.986;2024-03-07T08:28:01;63.77;;;32.10;;
77581;SDS011;66726;52.388;9.986;2024-03-07T08:30:31;65.83;;;31.67;;
77581;SDS011;66726;52.388;9.986;2024-03-07T08:33:02;72.17;;;31.53;;
77581;SDS011;66726;52.388;9.986;2024-03-07T08:35:33;63.07;;;30.70;;
77581;SDS011;66726;52.388;9.986;2024-03-07T08:38:02;64.47;;;31.63;;
77581;SDS011;66726;52.388;9.986;2024-03-07T08:40:31;60.17;;;31.03;;
77581;SDS011;66726;52.388;9.986;2024-03-07T08:43:00;60.27;;;31.13;;
77581;SDS011;66726;52.388;9.986;2024-03-07T08:45:30;57.90;;;30.90;;
77581;SDS011;66726;52.388;9.986;2024-03-07T08:48:00;61.67;;;30.13;;
77581;SDS011;66726;52.388;9.986;2024-03-07T08:50:32;55.87;;;30.30;;
77581;SDS011;66726;52.388;9.986;2024-03-07T08:53:05;59.27;;;30.17;;
77581;SDS011;66726;52.388;9.986;2024-03-07T08:55:35;58.50;;;30.77;;
77581;SDS011;66726;52.388;9.986;2024-03-07T08:58:03;58.37;;;30.60;;
77581;SDS011;66726;52.388;9.986;2024-03-07T09:00:34;52.23;;;29.40;;
77581;SDS011;66726;52.388;9.986;2024-03-07T09:03:06;54.03;;;29.33;;
77581;SDS011;66726;52.388;9.986;2024-03-07T09:05:39;58.00;;;29.80;;
77581;SDS011;66726;52.388;9.986;2024-03-07T09:08:08;54.60;;;29.77;;
77581;SDS011;66726;52.388;9.986;2024-03-07T09:10:36;58.93;;;30.57;;
77581;SDS011;66726;52.388;9.986;2024-03-07T09:13:09;60.40;;;30.73;;
77581;SDS011;66726;52.388;9.986;2024-03-07T09:15:37;60.77;;;29.87;;
77581;SDS011;66726;52.388;9.986;2024-03-07T09:18:07;58.40;;;29.30;;
77581;SDS011;66726;52.388;9.986;2024-03-07T09:20:36;64.10;;;29.93;;
77581;SDS011;66726;52.388;9.986;2024-03-07T09:23:05;59.33;;;29.90;;
77581;SDS011;66726;52.388;9.986;2024-03-07T09:25:34;55.30;;;28.33;;
77581;SDS011;66726;52.388;9.986;2024-03-07T09:28:03;59.57;;;30.20;;
77581;SDS011;66726;52.388;9.986;2024-03-07T09:30:32;60.27;;;29.47;;
77581;SDS011;66726;52.388;9.986;2024-03-07T09:33:04;62.27;;;30.37;;
77581;SDS011;66726;52.388;9.986;2024-03-07T09:35:38;63.40;;;30.00;;
77581;SDS011;66726;52.388;9.986;2024-03-07T09:38:06;66.93;;;32.00;;
77581;SDS011;66726;52.388;9.986;2024-03-07T09:40:34;58.50;;;30.60;;
77581;SDS011;66726;52.388;9.986;2024-03-07T09:43:03;64.47;;;30.77;;
77581;SDS011;66726;52.388;9.986;2024-03-07T09:45:36;61.60;;;29.77;;
77581;SDS011;66726;52.388;9.986;2024-03-07T09:48:06;67.47;;;30.77;;
77581;SDS011;66726;52.388;9.986;2024-03-07T09:50:37;63.37;;;30.13;;
77581;SDS011;66726;52.388;9.986;2024-03-07T09:53:08;63.83;;;31.03;;
77581;SDS011;66726;52.388;9.986;2024-03-07T09:55:36;60.40;;;29.73;;
77581;SDS011;66726;52.388;9.986;2024-03-07T09:58:05;62.77;;;29.87;;
77581;SDS011;66726;52.388;9.986;2024-03-07T10:00:35;62.50;;;30.17;;
77581;SDS011;66726;52.388;9.986;2024-03-07T10:03:07;64.23;;;29.87;;
77581;SDS011;66726;52.388;9.986;2024-03-07T10:05:43;59.63;;;30.03;;
77581;SDS011;66726;52.388;9.986;2024-03-07T10:08:11;61.37;;;30.13;;
77581;SDS011;66726;52.388;9.986;2024-03-07T10:10:40;62.67;;;29.23;;
77581;SDS011;66726;52.388;9.986;2024-03-07T10:13:11;66.90;;;30.40;;
77581;SDS011;66726;52.388;9.986;2024-03-07T10:15:39;63.57;;;28.80;;
77581;SDS011;66726;52.388;9.986;2024-03-07T10:18:09;60.00;;;28.87;;
77581;SDS011;66726;52.388;9.986;2024-03-07T10:20:39;60.13;;;29.37;;
77581;SDS011;66726;52.388;9.986;2024-03-07T10:23:11;61.57;;;28.87;;
77581;SDS011;66726;52.388;9.986;2024-03-07T10:25:39;62.30;;;28.87;;
77581;SDS011;66726;52.388;9.986;2024-03-07T10:28:08;64.53;;;30.87;;
77581;SDS011;66726;52.388;9.986;2024-03-07T10:30:41;56.77;;;28.97;;
77581;SDS011;66726;52.388;9.986;2024-03-07T10:33:10;60.63;;;29.80;;
77581;SDS011;66726;52.388;9.986;2024-03-07T10:35:40;60.03;;;28.93;;
77581;SDS011;66726;52.388;9.986;2024-03-07T10:38:10;55.90;;;29.03;;
77581;SDS011;66726;52.388;9.986;2024-03-07T10:40:41;58.93;;;28.03;;
77581;SDS011;66726;52.388;9.986;2024-03-07T10:43:10;59.30;;;29.40;;
77581;SDS011;66726;52.388;9.986;2024-03-07T10:45:42;58.50;;;30.43;;
77581;SDS011;66726;52.388;9.986;2024-03-07T10:48:16;56.30;;;27.60;;
77581;SDS011;66726;52.388;9.986;2024-03-07T10:50:54;58.33;;;29.70;;
77581;SDS011;66726;52.388;9.986;2024-03-07T10:53:40;56.60;;;29.97;;
77581;SDS011;66726;52.388;9.986;2024-03-07T10:56:29;54.37;;;30.57;;
77581;SDS011;66726;52.388;9.986;2024-03-07T10:59:17;56.97;;;29.87;;
77581;SDS011;66726;52.388;9.986;2024-03-07T11:01:49;52.93;;;27.63;;
77581;SDS011;66726;52.388;9.986;2024-03-07T11:04:28;54.37;;;28.33;;
77581;SDS011;66726;52.388;9.986;2024-03-07T11:06:58;52.77;;;28.67;;
77581;SDS011;66726;52.388;9.986;2024-03-07T11:09:27;56.47;;;29.67;;
77581;SDS011;66726;52.388;9.986;2024-03-07T11:11:59;54.80;;;28.80;;
77581;SDS011;66726;52.388;9.986;2024-03-07T11:14:31;51.37;;;28.27;;
77581;SDS011;66726;52.388;9.986;2024-03-07T11:17:03;53.50;;;27.23;;
77581;SDS011;66726;52.388;9.986;2024-03-07T11:19:32;50.43;;;25.83;;
77581;SDS011;66726;52.388;9.986;2024-03-07T11:22:05;45.67;;;25.67;;
77581;SDS011;66726;52.388;9.986;2024-03-07T11:24:42;47.17;;;25.17;;
77581;SDS011;66726;52.388;9.986;2024-03-07T11:27:11;50.13;;;26.60;;
77581;SDS011;66726;52.388;9.986;2024-03-07T11:29:43;49.40;;;24.83;;
77581;SDS011;66726;52.388;9.986;2024-03-07T11:32:20;43.30;;;24.93;;
77581;SDS011;66726;52.388;9.986;2024-03-07T11:34:50;45.07;;;24.23;;
77581;SDS011;66726;52.388;9.986;2024-03-07T11:40:19;45.00;;;25.33;;
77581;SDS011;66726;52.388;9.986;2024-03-07T11:43:11;45.23;;;24.03;;
77581;SDS011;66726;52.388;9.986;2024-03-07T11:45:40;42.93;;;23.67;;
77581;SDS011;66726;52.388;9.986;2024-03-07T11:48:11;39.03;;;22.93;;
77581;SDS011;66726;52.388;9.986;2024-03-07T11:50:41;42.50;;;23.73;;
77581;SDS011;66726;52.388;9.986;2024-03-07T11:53:09;41.27;;;24.30;;
77581;SDS011;66726;52.388;9.986;2024-03-07T11:55:39;42.47;;;23.83;;
77581;SDS011;66726;52.388;9.986;2024-03-07T11:58:12;44.57;;;24.90;;
77581;SDS011;66726;52.388;9.986;2024-03-07T12:00:42;43.40;;;24.23;;
77581;SDS011;66726;52.388;9.986;2024-03-07T12:03:13;41.23;;;22.97;;
77581;SDS011;66726;52.388;9.986;2024-03-07T12:05:45;38.73;;;23.90;;
77581;SDS011;66726;52.388;9.986;2024-03-07T12:08:14;42.73;;;23.60;;
77581;SDS011;66726;52.388;9.986;2024-03-07T12:10:44;38.70;;;22.73;;
77581;SDS011;66726;52.388;9.986;2024-03-07T12:13:15;42.10;;;22.77;;
77581;SDS011;66726;52.388;9.986;2024-03-07T12:15:45;36.97;;;21.73;;
77581;SDS011;66726;52.388;9.986;2024-03-07T12:18:15;38.20;;;23.43;;
77581;SDS011;66726;52.388;9.986;2024-03-07T12:20:44;36.87;;;22.77;;
77581;SDS011;66726;52.388;9.986;2024-03-07T12:23:17;38.57;;;23.03;;
77581;SDS011;66726;52.388;9.986;2024-03-07T12:25:47;39.37;;;22.00;;
77581;SDS011;66726;52.388;9.986;2024-03-07T12:28:28;41.43;;;22.43;;
77581;SDS011;66726;52.388;9.986;2024-03-07T12:30:59;37.43;;;21.73;;
77581;SDS011;66726;52.388;9.986;2024-03-07T12:33:29;36.73;;;22.60;;
77581;SDS011;66726;52.388;9.986;2024-03-07T12:36:06;37.17;;;23.40;;
77581;SDS011;66726;52.388;9.986;2024-03-07T12:38:36;39.07;;;22.47;;
77581;SDS011;66726;52.388;9.986;2024-03-07T12:41:09;35.93;;;22.60;;
77581;SDS011;66726;52.388;9.986;2024-03-07T12:43:43;36.83;;;22.40;;
77581;SDS011;66726;52.388;9.986;2024-03-07T12:46:13;36.00;;;21.43;;
77581;SDS011;66726;52.388;9.986;2024-03-07T12:48:43;34.80;;;22.43;;
77581;SDS011;66726;52.388;9.986;2024-03-07T12:51:13;34.70;;;21.87;;
77581;SDS011;66726;52.388;9.986;2024-03-07T12:53:45;37.57;;;21.63;;
77581;SDS011;66726;52.388;9.986;2024-03-07T12:56:15;40.33;;;23.07;;
77581;SDS011;66726;52.388;9.986;2024-03-07T12:58:46;36.73;;;22.00;;
77581;SDS011;66726;52.388;9.986;2024-03-07T13:01:16;32.97;;;21.03;;
77581;SDS011;66726;52.388;9.986;2024-03-07T13:03:46;30.70;;;20.43;;
77581;SDS011;66726;52.388;9.986;2024-03-07T13:06:16;35.17;;;21.30;;
77581;SDS011;66726;52.388;9.986;2024-03-07T13:08:51;32.50;;;21.00;;
77581;SDS011;66726;52.388;9.986;2024-03-07T13:11:21;30.10;;;20.47;;
77581;SDS011;66726;52.388;9.986;2024-03-07T13:13:54;30.60;;;18.73;;
77581;SDS011;66726;52.388;9.986;2024-03-07T13:16:22;27.93;;;17.83;;
77581;SDS011;66726;52.388;9.986;2024-03-07T13:18:56;29.33;;;19.47;;
77581;SDS011;66726;52.388;9.986;2024-03-07T13:21:25;32.07;;;19.77;;
77581;SDS011;66726;52.388;9.986;2024-03-07T13:23:53;26.43;;;18.83;;
77581;SDS011;66726;52.388;9.986;2024-03-07T13:26:25;29.13;;;18.30;;
77581;SDS011;66726;52.388;9.986;2024-03-07T13:28:56;29.40;;;18.67;;
77581;SDS011;66726;52.388;9.986;2024-03-07T13:31:27;29.67;;;18.87;;
77581;SDS011;66726;52.388;9.986;2024-03-07T13:33:56;25.07;;;18.37;;
77581;SDS011;66726;52.388;9.986;2024-03-07T13:36:26;30.60;;;18.87;;
77581;SDS011;66726;52.388;9.986;2024-03-07T13:38:55;29.93;;;19.17;;
77581;SDS011;66726;52.388;9.986;2024-03-07T13:41:25;27.20;;;17.27;;
77581;SDS011;66726;52.388;9.986;2024-03-07T13:43:54;26.20;;;17.43;;
77581;SDS011;66726;52.388;9.986;2024-03-07T13:46:24;26.10;;;17.47;;
77581;SDS011;66726;52.388;9.986;2024-03-07T13:48:53;26.20;;;17.73;;
77581;SDS011;66726;52.388;9.986;2024-03-07T13:51:26;28.23;;;17.80;;
77581;SDS011;66726;52.388;9.986;2024-03-07T13:53:55;28.23;;;17.70;;
77581;SDS011;66726;52.388;9.986;2024-03-07T13:56:44;26.50;;;17.97;;
77581;SDS011;66726;52.388;9.986;2024-03-07T13:59:31;26.17;;;18.20;;
77581;SDS011;66726;52.388;9.986;2024-03-07T14:02:37;31.93;;;18.17;;
77581;SDS011;66726;52.388;9.986;2024-03-07T14:05:54;28.30;;;17.50;;
77581;SDS011;66726;52.388;9.986;2024-03-07T14:08:45;28.93;;;18.27;;
77581;SDS011;66726;52.388;9.986;2024-03-07T14:12:16;25.67;;;17.67;;
77581;SDS011;66726;52.388;9.986;2024-03-07T14:15:28;29.23;;;18.63;;
77581;SDS011;66726;52.388;9.986;2024-03-07T14:18:50;26.33;;;18.47;;
77581;SDS011;66726;52.388;9.986;2024-03-07T14:22:22;27.03;;;18.97;;
77581;SDS011;66726;52.388;9.986;2024-03-07T14:25:24;28.87;;;17.77;;
77581;SDS011;66726;52.388;9.986;2024-03-07T14:28:31;25.80;;;18.50;;
77581;SDS011;66726;52.388;9.986;2024-03-07T14:31:19;25.77;;;17.80;;
77581;SDS011;66726;52.388;9.986;2024-03-07T14:33:50;25.27;;;17.87;;
77581;SDS011;66726;52.388;9.986;2024-03-07T14:36:32;24.20;;;17.73;;
77581;SDS011;66726;52.388;9.986;2024-03-07T14:39:06;24.23;;;17.87;;
77581;SDS011;66726;52.388;9.986;2024-03-07T14:41:42;26.70;;;17.73;;
77581;SDS011;66726;52.388;9.986;2024-03-07T14:44:18;26.07;;;17.67;;
77581;SDS011;66726;52.388;9.986;2024-03-07T14:46:52;25.50;;;17.30;;
77581;SDS011;66726;52.388;9.986;2024-03-07T14:49:26;27.03;;;18.30;;